KOAJ/OAJ METAR and TAF weather

Enter ICAO airport designator
Station Type Date Time Source
KOAJ METAR 2021/07/27 21:56 UTC NOAA

KOAJ 272156Z 16005KT 10SM OVC055 31/24 A2996 RMK AO2 SLP145 T03110239


Station Type Date Time Source
KOAJ Decoded METAR 2021/07/27 21:56 UTC NOAA

Jacksonville, Albert J Ellis Airport, NC, United States (KOAJ) 34-50N 077-37W
Jul 27, 2021 - 05:56 PM EDT / 2021.07.27 2156 UTC
Wind: from the SSE (160 degrees) at 6 MPH (5 KT):0
Visibility: 10 mile(s):0
Sky conditions: overcast
Temperature: 88.0 F (31.1 C)
Heat index: 97.5 F (36.4 C):1
Dew Point: 75.0 F (23.9 C)
Relative Humidity: 65%
Pressure (altimeter): 29.96 in. Hg (1014 hPa)
ob: KOAJ 272156Z 16005KT 10SM OVC055 31/24 A2996 RMK AO2 SLP145 T03110239
cycle: 22

Station Type Date Time Source
KOAJ TAF 2021/07/27 18:30 UTC NOAA

TAF KOAJ 271728Z 2718/2818 18005KT P6SM BKN200
FM272000 21005KT P6SM VCTS BKN050CB BKN200
FM280300 21004KT P6SM BKN250
FM281400 VRB03KT P6SM BKN060
AMD LTD TO CLD VIS AND WIND

Example: see airport list